Terminal Aerodrome Forecast
Issued by NWS Central Illinois

Home | Current Version | Previous Version | Text Only | Print | Product List | Glossary On
Versions: 1 2 3 4 5 6 7 8 9 10 11 12 13 14 15 16 17 18 19 20 21 22 23
000
FTUS43 KILX 071316 AAA
TAFSPI
TAF AMD
KSPI 071316Z 0713/0812 35010KT 4SM -RA BR OVC005
     FM071800 02010G18KT 4SM BR VCSH BKN007 OVC015
     FM072300 03012KT P6SM OVC020=

USA.gov is the U.S. government's official web portal to all federal, state and local government web resources and services.